Time;durP1;ratioP1;P1;durP2;ratioP2;P2;SDS_P1;SDS_P2;PMS_P1;PMS_P2;Temp;Humidity;BMP_temperature;BMP_pressure;BME280_temperature;BME280_humidity;BME280_pressure;Samples;Min_cycle;Max_cycle;Signal;HPM_P1;HPM_P2
2022/08/10 00:01:12;;;;;;;6.53;4.65;;;17.90;99.90;;;;;;3059929;19;20480;-69
2022/08/10 00:02:13;;;;;;;7.10;4.93;;;17.90;99.90;;;;;;3060144;19;20013;-69
2022/08/10 00:03:17;;;;;;;6.22;4.93;;;17.90;99.90;;;;;;3060246;19;20014;-68
2022/08/10 00:04:19;;;;;;;6.22;4.50;;;17.90;99.90;;;;;;3060074;19;20010;-69
2022/08/10 00:05:24;;;;;;;6.63;5.05;;;18.10;99.90;;;;;;3059476;19;20033;-69
2022/08/10 00:06:25;;;;;;;6.20;4.47;;;17.80;99.90;;;;;;3060165;19;20007;-71
2022/08/10 00:07:29;;;;;;;6.75;4.78;;;18.00;99.90;;;;;;3060178;19;20014;-71
2022/08/10 00:08:30;;;;;;;5.75;4.57;;;18.10;99.90;;;;;;3060303;19;20481;-68
2022/08/10 00:09:34;;;;;;;6.93;4.85;;;17.90;99.90;;;;;;3058817;19;20015;-68
2022/08/10 00:10:36;;;;;;;6.88;4.70;;;18.00;99.90;;;;;;3059731;19;20633;-70
2022/08/10 00:11:39;;;;;;;7.72;4.78;;;17.90;99.90;;;;;;3059579;19;20032;-70
2022/08/10 00:12:44;;;;;;;7.18;4.70;;;17.80;99.90;;;;;;3060069;19;20034;-71
2022/08/10 00:13:48;;;;;;;6.47;4.88;;;17.80;99.90;;;;;;3058763;19;20010;-70
2022/08/10 00:14:50;;;;;;;6.97;5.32;;;17.80;99.90;;;;;;3061701;19;20014;-70
2022/08/10 00:15:54;;;;;;;9.02;4.88;;;17.60;99.90;;;;;;3059276;19;20014;-68
2022/08/10 00:16:55;;;;;;;6.65;5.07;;;17.80;99.90;;;;;;3060674;19;20018;-69
2022/08/10 00:17:59;;;;;;;9.40;5.18;;;17.80;99.90;;;;;;3059497;19;20066;-70
2022/08/10 00:19:00;;;;;;;8.48;5.13;;;17.90;99.90;;;;;;3059357;19;20279;-68
2022/08/10 00:20:06;;;;;;;8.85;5.20;;;17.70;99.90;;;;;;3059463;19;20010;-69
2022/08/10 00:21:11;;;;;;;8.15;5.18;;;17.80;99.90;;;;;;3057986;19;20018;-68
2022/08/10 00:22:12;;;;;;;9.73;5.50;;;17.80;99.90;;;;;;3059872;19;20103;-68
2022/08/10 00:23:16;;;;;;;6.93;5.03;;;17.60;99.90;;;;;;3059847;19;20007;-69
2022/08/10 00:24:17;;;;;;;6.45;5.00;;;17.70;99.90;;;;;;3059857;19;20003;-68
2022/08/10 00:25:21;;;;;;;7.70;5.28;;;17.60;99.90;;;;;;3058576;19;20006;-68
2022/08/10 00:26:22;;;;;;;7.13;5.20;;;17.60;99.90;;;;;;3060558;19;20077;-69
2022/08/10 00:27:27;;;;;;;7.65;4.72;;;17.60;99.90;;;;;;3059904;19;20011;-69
2022/08/10 00:28:31;;;;;;;7.20;4.65;;;17.70;99.90;;;;;;3059291;19;20018;-69
2022/08/10 00:29:35;;;;;;;7.95;5.00;;;17.70;99.90;;;;;;3059791;19;20048;-69
2022/08/10 00:30:36;;;;;;;7.50;5.25;;;17.80;99.90;;;;;;3058486;19;20345;-70
2022/08/10 00:31:40;;;;;;;8.55;5.38;;;17.70;99.90;;;;;;3061345;19;20010;-69
2022/08/10 00:32:41;;;;;;;7.40;5.53;;;17.70;99.90;;;;;;3059664;19;20472;-69
2022/08/10 00:33:45;;;;;;;7.05;5.07;;;17.70;99.90;;;;;;3058844;19;20002;-69
2022/08/10 00:34:46;;;;;;;7.05;5.10;;;17.50;99.90;;;;;;3059471;19;20010;-69
2022/08/10 00:35:51;;;;;;;8.05;5.07;;;17.70;99.90;;;;;;3059508;19;20045;-69
2022/08/10 00:36:52;;;;;;;7.10;4.97;;;17.70;99.90;;;;;;3059553;19;20074;-68
2022/08/10 00:37:56;;;;;;;6.45;4.70;;;17.60;99.90;;;;;;3059798;19;20010;-69
2022/08/10 00:38:57;;;;;;;9.10;5.65;;;17.70;99.90;;;;;;3058638;19;20035;-69
2022/08/10 00:40:01;;;;;;;9.30;5.95;;;17.70;99.90;;;;;;3059798;19;20007;-70
2022/08/10 00:41:02;;;;;;;7.55;5.43;;;17.60;99.90;;;;;;3059275;19;20018;-69
2022/08/10 00:42:08;;;;;;;8.57;5.70;;;17.60;99.90;;;;;;3059296;19;20010;-69
2022/08/10 00:43:10;;;;;;;7.22;5.28;;;17.60;99.90;;;;;;3059929;19;20018;-69
2022/08/10 00:44:16;;;;;;;9.00;4.78;;;17.50;99.90;;;;;;3060426;19;20035;-69
2022/08/10 00:45:18;;;;;;;9.30;5.25;;;17.60;99.90;;;;;;3059103;19;20014;-69
2022/08/10 00:46:21;;;;;;;7.75;5.05;;;18.60;99.90;;;;;;3060109;19;20014;-69
2022/08/10 00:47:23;;;;;;;6.90;5.35;;;17.80;99.90;;;;;;3059354;19;20002;-69
2022/08/10 00:48:27;;;;;;;7.85;5.93;;;17.60;99.90;;;;;;3059664;19;20015;-70
2022/08/10 00:49:28;;;;;;;7.10;5.15;;;17.50;99.90;;;;;;3060417;19;20356;-69
2022/08/10 00:50:33;;;;;;;8.13;5.47;;;17.50;99.90;;;;;;3058993;19;20018;-69
2022/08/10 00:51:34;;;;;;;7.18;5.05;;;17.60;99.90;;;;;;3059093;19;20431;-69
2022/08/10 00:52:40;;;;;;;6.68;5.25;;;17.60;99.90;;;;;;3059665;19;20040;-69
2022/08/10 00:53:41;;;;;;;6.28;4.97;;;17.50;99.90;;;;;;3060075;19;20027;-69
2022/08/10 00:54:46;;;;;;;8.00;5.35;;;17.60;99.90;;;;;;3059706;19;20006;-69
2022/08/10 00:55:48;;;;;;;7.00;5.15;;;17.60;99.90;;;;;;3058900;19;20007;-69
2022/08/10 00:56:52;;;;;;;7.88;5.28;;;17.50;99.90;;;;;;3059735;19;20024;-69
2022/08/10 00:57:54;;;;;;;6.85;5.28;;;17.40;99.90;;;;;;3059294;19;20426;-69
2022/08/10 00:58:58;;;;;;;8.48;5.85;;;17.40;99.90;;;;;;3059221;19;20010;-69
2022/08/10 01:00:03;;;;;;;8.38;5.18;;;17.40;99.90;;;;;;3057959;19;19998;-69
2022/08/10 01:01:07;;;;;;;7.88;5.45;;;17.40;99.90;;;;;;3060212;19;20014;-69
2022/08/10 01:02:08;;;;;;;8.00;5.55;;;17.30;99.90;;;;;;3058830;19;22598;-70
2022/08/10 01:03:12;;;;;;;7.05;5.28;;;17.40;99.90;;;;;;3059132;19;20024;-69
2022/08/10 01:04:13;;;;;;;7.32;4.93;;;17.40;99.90;;;;;;3059120;19;20033;-69
2022/08/10 01:05:18;;;;;;;9.23;5.43;;;17.40;99.90;;;;;;3059396;19;20015;-69
2022/08/10 01:06:34;;;;;;;6.45;4.93;;;17.50;99.90;;;;;;3059512;19;20039;-69
2022/08/10 01:07:58;;;;;;;6.53;4.57;;;17.50;99.90;;;;;;3060699;19;20022;-69
2022/08/10 01:09:15;;;;;;;8.13;5.18;;;17.40;99.90;;;;;;3059358;19;20070;-70
2022/08/10 01:10:41;;;;;;;7.63;5.13;;;17.30;99.90;;;;;;3058332;19;20053;-69
2022/08/10 01:11:48;;;;;;;7.97;4.88;;;17.30;99.90;;;;;;3058438;19;20020;-69
2022/08/10 01:12:58;;;;;;;7.13;4.85;;;17.50;99.90;;;;;;3059075;19;20086;-70
2022/08/10 01:14:09;;;;;;;8.20;4.95;;;17.20;99.90;;;;;;3058421;19;20002;-69
2022/08/10 01:15:17;;;;;;;5.85;4.68;;;17.10;99.90;;;;;;3059026;19;20019;-69
2022/08/10 01:16:27;;;;;;;7.55;5.47;;;17.20;99.90;;;;;;3057845;19;20044;-69
2022/08/10 01:17:36;;;;;;;6.88;5.22;;;17.20;99.90;;;;;;3060599;19;20022;-69
2022/08/10 01:18:45;;;;;;;6.90;5.05;;;17.20;99.90;;;;;;3058988;19;20027;-69
2022/08/10 01:19:56;;;;;;;8.48;5.82;;;17.10;99.90;;;;;;3059286;19;20065;-69
2022/08/10 01:21:25;;;;;;;7.78;5.10;;;17.30;99.90;;;;;;3058978;19;20428;-69
2022/08/10 01:22:43;;;;;;;8.38;5.20;;;17.30;99.90;;;;;;3057878;19;20024;-69
2022/08/10 01:24:18;;;;;;;9.10;6.05;;;17.10;99.90;;;;;;3059034;19;20007;-70
2022/08/10 01:25:35;;;;;;;7.28;5.30;;;17.20;99.90;;;;;;3058525;19;20019;-70
2022/08/10 01:26:49;;;;;;;8.35;5.57;;;17.10;99.90;;;;;;3058279;19;20022;-70
2022/08/10 01:27:58;;;;;;;7.68;5.43;;;17.20;99.90;;;;;;3058894;19;20022;-70
2022/08/10 01:29:28;;;;;;;9.60;5.40;;;17.20;99.90;;;;;;3058553;19;20025;-70
2022/08/10 01:30:31;;;;;;;7.85;5.78;;;16.80;99.90;;;;;;3058077;19;20002;-70
2022/08/10 01:31:43;;;;;;;9.23;5.63;;;17.10;99.90;;;;;;3058990;19;20011;-70
2022/08/10 01:32:49;;;;;;;8.05;5.43;;;17.20;99.90;;;;;;3059119;19;20007;-70
2022/08/10 01:33:58;;;;;;;8.63;5.88;;;17.00;99.90;;;;;;3057875;19;20480;-70
2022/08/10 01:35:11;;;;;;;8.95;5.70;;;17.20;99.90;;;;;;3059044;19;20007;-70
2022/08/10 01:36:18;;;;;;;7.72;5.95;;;17.10;99.90;;;;;;3058124;19;20006;-70
2022/08/10 01:37:22;;;;;;;8.10;5.80;;;17.20;99.90;;;;;;3059070;19;20015;-70
2022/08/10 01:38:30;;;;;;;9.00;5.85;;;17.20;99.90;;;;;;3057450;19;20014;-70
2022/08/10 01:39:36;;;;;;;8.57;6.28;;;17.20;99.90;;;;;;3059251;19;20015;-70
2022/08/10 01:40:55;;;;;;;8.18;5.50;;;17.30;99.90;;;;;;3058859;19;20002;-70
2022/08/10 01:42:00;;;;;;;9.25;5.55;;;17.10;99.90;;;;;;3058262;19;20019;-69
2022/08/10 01:43:08;;;;;;;9.07;5.85;;;17.10;99.90;;;;;;3058659;19;20013;-70
2022/08/10 01:44:13;;;;;;;8.20;5.38;;;17.10;99.90;;;;;;3058650;19;20530;-70
2022/08/10 01:45:23;;;;;;;8.07;5.35;;;17.20;99.90;;;;;;3059028;19;20023;-70
2022/08/10 01:46:28;;;;;;;9.75;6.32;;;16.80;99.90;;;;;;3057648;19;20011;-70
2022/08/10 01:48:56;;;;;;;10.68;5.68;;;17.00;99.90;;;;;;3059026;19;20003;-69
2022/08/10 01:50:01;;;;;;;8.80;5.80;;;17.10;99.90;;;;;;3058495;19;20023;-69
2022/08/10 01:51:14;;;;;;;9.65;6.20;;;17.10;99.90;;;;;;3058728;19;20025;-69
2022/08/10 01:52:19;;;;;;;8.45;6.07;;;17.10;99.90;;;;;;3058668;19;20074;-69
2022/08/10 01:53:27;;;;;;;9.18;5.72;;;16.90;99.90;;;;;;3059393;19;20015;-69
2022/08/10 01:54:30;;;;;;;10.65;6.45;;;17.10;99.90;;;;;;3058405;19;20516;-69
2022/08/10 01:55:34;;;;;;;7.90;5.63;;;17.00;99.90;;;;;;3058218;19;20019;-69
2022/08/10 01:56:39;;;;;;;10.57;5.82;;;17.00;99.90;;;;;;3058078;19;20011;-70
2022/08/10 01:57:44;;;;;;;9.23;5.93;;;17.00;99.90;;;;;;3058814;19;20002;-69
2022/08/10 01:58:50;;;;;;;10.23;6.40;;;17.00;99.90;;;;;;3058294;19;20039;-69
2022/08/10 01:59:55;;;;;;;8.32;6.03;;;17.00;99.90;;;;;;3058418;19;20018;-69
2022/08/10 02:01:03;;;;;;;10.60;6.22;;;17.20;99.90;;;;;;3058597;19;20014;-69
2022/08/10 02:02:06;;;;;;;12.27;6.53;;;17.00;99.90;;;;;;3058613;19;20010;-69
2022/08/10 02:03:13;;;;;;;9.65;6.55;;;17.10;99.90;;;;;;3058696;19;20006;-69
2022/08/10 02:04:21;;;;;;;9.82;6.50;;;16.90;99.90;;;;;;3058318;19;20026;-69
2022/08/10 02:05:26;;;;;;;7.97;5.97;;;17.10;99.90;;;;;;3058480;19;20014;-69
2022/08/10 02:06:32;;;;;;;8.45;6.00;;;16.80;99.90;;;;;;3059017;19;20021;-69
2022/08/10 02:07:34;;;;;;;10.93;6.55;;;16.90;99.90;;;;;;3058837;19;20380;-69
2022/08/10 02:08:39;;;;;;;12.25;6.53;;;17.10;99.90;;;;;;3059529;19;20014;-69
2022/08/10 02:09:44;;;;;;;8.57;5.85;;;16.90;99.90;;;;;;3058425;19;20002;-69
2022/08/10 02:10:50;;;;;;;9.10;6.03;;;17.00;99.90;;;;;;3058257;19;20011;-69
2022/08/10 02:11:53;;;;;;;10.27;6.93;;;17.00;99.90;;;;;;3058030;19;20390;-69
2022/08/10 02:12:59;;;;;;;8.52;6.20;;;16.90;99.90;;;;;;3058129;19;20073;-69
2022/08/10 02:14:01;;;;;;;9.90;6.25;;;16.90;99.90;;;;;;3057877;19;20018;-69
2022/08/10 02:15:09;;;;;;;8.13;6.00;;;17.00;99.90;;;;;;3055284;19;20010;-69
2022/08/10 02:16:18;;;;;;;9.23;6.07;;;16.90;99.90;;;;;;3057735;19;20006;-69
2022/08/10 02:17:22;;;;;;;11.80;6.55;;;16.90;99.90;;;;;;3058143;19;20014;-69
2022/08/10 02:18:26;;;;;;;9.70;6.70;;;16.70;99.90;;;;;;3058643;19;20349;-69
2022/08/10 02:19:31;;;;;;;10.32;5.72;;;17.40;99.90;;;;;;3058154;19;20385;-70
2022/08/10 02:20:38;;;;;;;7.93;5.28;;;17.00;99.90;;;;;;3058513;19;20005;-69
2022/08/10 02:21:41;;;;;;;9.05;5.80;;;16.80;99.90;;;;;;3058134;19;20024;-70
2022/08/10 02:22:50;;;;;;;9.65;6.10;;;16.90;99.90;;;;;;3058142;19;20021;-70
2022/08/10 02:23:53;;;;;;;10.38;6.40;;;17.00;99.90;;;;;;3058356;19;20491;-70
2022/08/10 02:24:59;;;;;;;10.27;6.57;;;16.80;99.90;;;;;;3058257;19;20715;-69
2022/08/10 02:26:02;;;;;;;9.10;6.57;;;17.00;99.90;;;;;;3058219;19;20017;-69
2022/08/10 02:27:06;;;;;;;9.23;6.45;;;16.90;99.90;;;;;;3058200;19;20014;-69
2022/08/10 02:28:09;;;;;;;10.35;6.28;;;16.80;99.90;;;;;;3057897;19;20014;-69
2022/08/10 02:29:16;;;;;;;8.73;6.35;;;16.80;99.90;;;;;;3058275;19;20452;-69
2022/08/10 02:30:18;;;;;;;11.43;6.63;;;16.90;99.90;;;;;;3056151;19;20023;-69
2022/08/10 02:31:27;;;;;;;10.38;6.38;;;16.90;99.90;;;;;;3057812;19;20484;-70
2022/08/10 02:32:31;;;;;;;14.77;6.45;;;16.90;99.90;;;;;;3057581;19;20054;-70
2022/08/10 02:33:36;;;;;;;9.57;6.38;;;16.80;99.90;;;;;;3058457;19;20445;-69
2022/08/10 02:34:40;;;;;;;11.10;6.30;;;16.80;99.90;;;;;;3058492;19;20010;-69
2022/08/10 02:35:45;;;;;;;12.18;6.72;;;16.80;99.90;;;;;;3057643;19;20383;-70
2022/08/10 02:36:51;;;;;;;10.75;6.72;;;16.80;99.90;;;;;;3058437;19;20022;-69
2022/08/10 02:38:01;;;;;;;10.05;6.60;;;16.90;99.90;;;;;;3057772;19;20002;-69
2022/08/10 02:39:08;;;;;;;10.68;6.95;;;16.90;99.90;;;;;;3058083;19;20495;-69
2022/08/10 02:40:10;;;;;;;10.48;6.63;;;16.80;99.90;;;;;;3056734;19;20018;-69
2022/08/10 02:41:17;;;;;;;10.57;7.10;;;16.80;99.90;;;;;;3057524;19;20007;-69
2022/08/10 02:42:23;;;;;;;11.30;6.75;;;16.60;99.90;;;;;;3058182;19;20010;-69
2022/08/10 02:43:31;;;;;;;11.05;7.28;;;16.70;99.90;;;;;;3058256;19;20021;-69
2022/08/10 02:44:40;;;;;;;10.20;7.07;;;16.70;99.90;;;;;;3057813;19;20011;-69
2022/08/10 02:45:48;;;;;;;12.45;6.75;;;16.60;99.90;;;;;;3057714;19;20019;-69
2022/08/10 02:47:01;;;;;;;11.48;7.18;;;16.70;99.90;;;;;;3058375;19;20031;-69
2022/08/10 02:48:11;;;;;;;10.68;6.72;;;16.70;99.90;;;;;;3057663;19;20484;-69
2022/08/10 02:49:17;;;;;;;12.13;6.97;;;16.80;99.90;;;;;;3058037;19;20006;-70
2022/08/10 02:50:28;;;;;;;11.63;7.55;;;16.70;99.90;;;;;;3056707;19;20006;-69
2022/08/10 02:51:38;;;;;;;12.60;7.57;;;16.80;99.90;;;;;;3058123;19;20039;-69
2022/08/10 02:52:47;;;;;;;12.02;7.65;;;16.60;99.90;;;;;;3057137;19;20017;-69
2022/08/10 02:53:52;;;;;;;12.32;7.32;;;16.80;99.90;;;;;;3058039;19;20007;-69
2022/08/10 02:55:01;;;;;;;14.23;7.55;;;16.60;99.90;;;;;;3057770;19;20700;-69
2022/08/10 02:56:07;;;;;;;11.77;7.22;;;16.60;99.90;;;;;;3057870;19;20042;-70
2022/08/10 02:57:15;;;;;;;11.32;7.75;;;16.50;99.90;;;;;;3057403;19;20014;-69
2022/08/10 02:58:25;;;;;;;11.35;7.07;;;16.70;99.90;;;;;;3057876;19;20006;-69
2022/08/10 02:59:34;;;;;;;11.48;7.72;;;16.70;99.90;;;;;;3058892;19;20010;-69
2022/08/10 03:00:43;;;;;;;12.00;7.78;;;16.60;99.90;;;;;;3056800;19;20382;-70
2022/08/10 03:01:51;;;;;;;12.18;8.02;;;16.60;99.90;;;;;;3059672;19;20492;-70
2022/08/10 03:02:57;;;;;;;12.80;8.23;;;16.70;99.90;;;;;;3058275;19;20033;-70
2022/08/10 03:04:05;;;;;;;13.20;8.27;;;16.60;99.90;;;;;;3057186;19;20007;-72
2022/08/10 03:05:10;;;;;;;14.00;8.30;;;16.50;99.90;;;;;;3057823;19;20074;-68
2022/08/10 03:06:19;;;;;;;12.43;8.20;;;16.50;99.90;;;;;;3059431;19;20026;-69
2022/08/10 03:07:22;;;;;;;10.95;7.90;;;16.70;99.90;;;;;;3057789;19;20361;-69
2022/08/10 03:08:32;;;;;;;13.02;8.48;;;16.50;99.90;;;;;;3057782;19;20011;-70
2022/08/10 03:09:37;;;;;;;11.88;8.07;;;16.50;99.90;;;;;;3057772;19;20377;-70
2022/08/10 03:10:43;;;;;;;12.55;7.78;;;16.50;99.90;;;;;;3057413;19;20021;-69
2022/08/10 03:11:46;;;;;;;12.10;8.32;;;16.60;99.90;;;;;;3057130;19;20018;-69
2022/08/10 03:12:52;;;;;;;12.50;8.10;;;16.60;99.90;;;;;;3057671;19;20003;-69
2022/08/10 03:13:56;;;;;;;11.02;7.50;;;16.60;99.90;;;;;;3057688;19;20032;-69
2022/08/10 03:15:01;;;;;;;12.93;8.10;;;16.60;99.90;;;;;;3057684;19;20025;-69
2022/08/10 03:16:03;;;;;;;14.80;8.18;;;16.60;99.90;;;;;;3057642;19;20027;-70
2022/08/10 03:17:08;;;;;;;10.90;7.63;;;16.50;99.90;;;;;;3058305;19;20033;-69
2022/08/10 03:18:13;;;;;;;13.20;7.95;;;16.60;99.90;;;;;;3057567;19;20026;-69
2022/08/10 03:19:19;;;;;;;13.82;9.02;;;16.40;99.90;;;;;;3057351;19;20041;-70
2022/08/10 03:20:22;;;;;;;13.40;7.90;;;16.40;99.90;;;;;;3056609;19;20015;-69
2022/08/10 03:21:29;;;;;;;12.48;8.48;;;16.40;99.90;;;;;;3057511;19;20002;-69
2022/08/10 03:22:31;;;;;;;12.55;7.95;;;16.70;99.90;;;;;;3057424;19;20006;-70
2022/08/10 03:23:35;;;;;;;;;;;16.50;99.90;;;;;;3057904;19;20014;-71
2022/08/10 03:24:37;;;;;;;12.45;8.10;;;16.50;99.90;;;;;;3058601;19;19926;-70
2022/08/10 03:25:43;;;;;;;11.32;7.72;;;16.40;99.90;;;;;;3056803;19;20010;-71
2022/08/10 03:26:45;;;;;;;12.32;8.30;;;16.40;99.90;;;;;;3057619;19;19999;-71
2022/08/10 03:27:50;;;;;;;12.32;8.10;;;16.50;99.90;;;;;;3056390;19;20561;-70
2022/08/10 03:28:52;;;;;;;12.63;7.82;;;16.40;99.90;;;;;;3058815;19;20010;-70
2022/08/10 03:29:58;;;;;;;12.05;8.25;;;16.30;99.90;;;;;;3056343;19;20014;-70
2022/08/10 03:31:00;;;;;;;12.00;8.05;;;16.50;99.90;;;;;;3059235;19;20369;-70
2022/08/10 03:32:06;;;;;;;12.57;8.27;;;16.50;99.90;;;;;;3057408;19;20006;-70
2022/08/10 03:33:08;;;;;;;11.70;7.90;;;16.50;99.90;;;;;;3057721;19;20007;-70
2022/08/10 03:34:16;;;;;;;12.45;8.18;;;16.40;99.90;;;;;;3057115;19;20022;-70
2022/08/10 03:35:18;;;;;;;12.38;8.18;;;14.50;99.90;;;;;;3057733;19;20002;-70
2022/08/10 03:36:22;;;;;;;11.20;7.95;;;16.40;99.90;;;;;;3057666;19;20026;-70
2022/08/10 03:37:26;;;;;;;12.52;8.02;;;16.30;99.90;;;;;;3056968;19;20023;-70
2022/08/10 03:38:28;;;;;;;14.38;8.05;;;16.40;99.90;;;;;;3056898;19;20011;-70
2022/08/10 03:39:32;;;;;;;13.73;7.40;;;16.00;99.90;;;;;;3057584;19;20003;-70
2022/08/10 03:40:35;;;;;;;14.23;8.18;;;16.30;99.90;;;;;;3056513;19;20014;-70
2022/08/10 03:41:42;;;;;;;13.10;8.38;;;16.40;99.90;;;;;;3056537;19;20014;-70
2022/08/10 03:42:46;;;;;;;11.95;7.75;;;16.30;99.90;;;;;;3057184;19;20390;-70
2022/08/10 03:43:51;;;;;;;10.65;7.63;;;16.40;99.90;;;;;;3057352;19;20365;-70
2022/08/10 03:44:55;;;;;;;11.30;8.00;;;16.30;99.90;;;;;;3059440;19;20007;-70
2022/08/10 03:46:01;;;;;;;12.32;8.20;;;16.30;99.90;;;;;;3060194;19;20017;-70
2022/08/10 03:47:04;;;;;;;11.20;7.40;;;16.40;99.90;;;;;;3059793;19;21042;-70
2022/08/10 03:48:10;;;;;;;11.80;7.70;;;16.30;99.90;;;;;;3060958;19;20018;-70
2022/08/10 03:49:20;;;;;;;12.52;8.02;;;16.20;99.90;;;;;;3060192;19;20017;-71
2022/08/10 03:50:23;;;;;;;12.73;7.95;;;16.30;99.90;;;;;;3061554;19;20033;-70
2022/08/10 03:51:27;;;;;;;14.30;7.85;;;16.40;99.90;;;;;;3060294;19;20013;-71
2022/08/10 03:52:30;;;;;;;13.65;7.65;;;16.10;99.90;;;;;;3061773;19;20014;-70
2022/08/10 03:53:34;;;;;;;12.38;7.97;;;16.30;99.90;;;;;;3060661;19;20031;-70
2022/08/10 03:54:37;;;;;;;12.27;7.70;;;16.10;99.90;;;;;;3059271;19;20025;-70
2022/08/10 03:55:41;;;;;;;12.60;7.82;;;16.10;99.90;;;;;;3059892;19;20010;-70
2022/08/10 03:56:42;;;;;;;12.23;7.65;;;16.20;99.90;;;;;;3058376;19;20564;-70
2022/08/10 03:57:47;;;;;;;13.93;8.10;;;16.20;99.90;;;;;;3058711;19;20448;-70
2022/08/10 03:58:48;;;;;;;13.88;8.25;;;16.30;99.90;;;;;;3060266;19;20018;-70
2022/08/10 03:59:52;;;;;;;12.57;7.72;;;16.20;99.90;;;;;;3060778;19;20015;-70
2022/08/10 04:00:55;;;;;;;11.77;7.18;;;16.00;99.90;;;;;;3061243;19;20047;-70
2022/08/10 04:01:59;;;;;;;12.07;7.93;;;16.10;99.90;;;;;;3060133;19;20014;-71
2022/08/10 04:03:03;;;;;;;11.60;7.35;;;16.10;99.90;;;;;;3059702;19;20010;-70
2022/08/10 04:04:07;;;;;;;11.38;7.72;;;16.20;99.90;;;;;;3060448;19;20015;-70
2022/08/10 04:05:13;;;;;;;13.57;8.30;;;16.10;99.90;;;;;;3060124;19;20373;-70
2022/08/10 04:06:17;;;;;;;13.82;8.02;;;16.10;99.90;;;;;;3060160;19;20471;-70
2022/08/10 04:07:19;;;;;;;14.13;7.80;;;16.10;99.90;;;;;;3060492;19;20031;-70
2022/08/10 04:08:23;;;;;;;12.25;7.50;;;16.00;99.90;;;;;;3059854;19;20014;-70
2022/08/10 04:09:26;;;;;;;12.63;8.05;;;17.00;99.90;;;;;;3059873;19;20015;-70
2022/08/10 04:10:31;;;;;;;11.35;7.47;;;16.00;99.90;;;;;;3059922;19;20010;-70
2022/08/10 04:11:32;;;;;;;11.38;7.53;;;16.10;99.90;;;;;;3059360;19;20003;-71
2022/08/10 04:12:36;;;;;;;11.82;7.97;;;16.10;99.90;;;;;;3059901;19;20021;-70
2022/08/10 04:13:38;;;;;;;13.80;7.38;;;16.20;99.90;;;;;;3059799;19;20010;-70
2022/08/10 04:14:41;;;;;;;13.50;7.78;;;16.20;99.90;;;;;;3059541;19;20017;-70
2022/08/10 04:15:43;;;;;;;12.82;8.13;;;16.00;99.90;;;;;;3060415;19;20030;-70
2022/08/10 04:16:46;;;;;;;13.38;6.97;;;16.10;99.90;;;;;;3059741;19;20014;-70
2022/08/10 04:17:48;;;;;;;12.05;6.85;;;16.10;99.90;;;;;;3060943;19;20029;-69
2022/08/10 04:18:51;;;;;;;12.05;7.72;;;16.10;99.90;;;;;;3060014;19;20006;-70
2022/08/10 04:19:55;;;;;;;10.55;7.03;;;16.00;99.90;;;;;;3059874;19;20020;-70
2022/08/10 04:21:05;;;;;;;13.35;7.38;;;16.20;99.90;;;;;;3059778;19;20010;-69
2022/08/10 04:22:13;;;;;;;11.82;7.72;;;16.10;99.90;;;;;;3059600;19;20018;-69
2022/08/10 04:23:24;;;;;;;10.55;7.65;;;15.90;99.90;;;;;;3060140;19;20081;-70
2022/08/10 04:24:27;;;;;;;12.02;6.85;;;16.10;99.90;;;;;;3060831;19;20104;-70
2022/08/10 04:25:32;;;;;;;10.20;6.97;;;16.00;99.90;;;;;;3059435;19;20017;-70
2022/08/10 04:26:34;;;;;;;10.43;7.25;;;16.00;99.90;;;;;;3059804;19;20047;-70
2022/08/10 04:27:37;;;;;;;13.75;7.43;;;16.30;99.90;;;;;;3059728;19;20014;-70
2022/08/10 04:28:39;;;;;;;10.45;6.85;;;16.30;99.90;;;;;;3059733;19;20007;-70
2022/08/10 04:29:43;;;;;;;11.63;7.45;;;16.10;99.90;;;;;;3059589;19;20070;-70
2022/08/10 04:30:47;;;;;;;10.20;7.20;;;16.10;99.90;;;;;;3059351;19;20364;-70
2022/08/10 04:31:52;;;;;;;11.27;7.10;;;16.10;99.90;;;;;;3059809;19;20052;-70
2022/08/10 04:32:54;;;;;;;11.30;6.75;;;15.90;99.90;;;;;;3060779;19;20014;-70
2022/08/10 04:34:00;;;;;;;12.70;7.53;;;16.10;99.90;;;;;;3058561;19;20019;-70
2022/08/10 04:35:03;;;;;;;10.90;7.03;;;16.20;99.90;;;;;;3058672;19;20018;-70
2022/08/10 04:36:12;;;;;;;10.50;6.75;;;16.20;99.90;;;;;;3059612;19;20002;-70
2022/08/10 04:37:17;;;;;;;9.07;6.03;;;16.30;99.90;;;;;;3059704;19;20018;-70
2022/08/10 04:38:22;;;;;;;12.88;6.95;;;16.10;99.90;;;;;;3059156;19;20011;-70
2022/08/10 04:39:23;;;;;;;11.05;7.10;;;16.20;99.90;;;;;;3059485;19;20107;-70
2022/08/10 04:40:29;;;;;;;13.88;7.50;;;16.00;99.90;;;;;;3059337;19;20037;-70
2022/08/10 04:41:31;;;;;;;9.93;6.97;;;16.10;99.90;;;;;;3061076;19;20018;-70
2022/08/10 04:42:35;;;;;;;11.27;8.05;;;16.10;99.90;;;;;;3058365;19;20019;-70
2022/08/10 04:43:37;;;;;;;11.25;7.57;;;16.20;99.90;;;;;;3058171;19;20003;-69
2022/08/10 04:44:41;;;;;;;13.05;7.38;;;16.10;99.90;;;;;;3059943;19;20019;-70
2022/08/10 04:45:44;;;;;;;12.15;7.38;;;16.20;99.90;;;;;;3060694;19;20014;-70
2022/08/10 04:46:48;;;;;;;12.73;7.47;;;16.20;99.90;;;;;;3058600;19;20353;-70
2022/08/10 04:47:49;;;;;;;9.27;6.75;;;16.10;99.90;;;;;;3061206;19;20010;-70
2022/08/10 04:48:53;;;;;;;10.75;7.68;;;16.20;99.90;;;;;;3061138;19;20366;-70
2022/08/10 04:49:54;;;;;;;11.43;7.07;;;16.10;99.90;;;;;;3060277;19;20011;-70
2022/08/10 04:50:58;;;;;;;11.18;7.20;;;16.20;99.90;;;;;;3058106;19;20015;-70
2022/08/10 04:52:02;;;;;;;10.52;7.07;;;16.10;99.90;;;;;;3060770;19;20025;-70
2022/08/10 04:53:06;;;;;;;9.38;6.95;;;16.30;99.90;;;;;;3059995;19;20018;-70
2022/08/10 04:54:08;;;;;;;11.95;7.57;;;16.20;99.90;;;;;;3059273;19;20006;-70
2022/08/10 04:55:12;;;;;;;10.88;6.68;;;16.10;99.90;;;;;;3057681;19;20559;-70
2022/08/10 04:56:13;;;;;;;10.43;7.30;;;16.20;99.90;;;;;;3059090;19;20011;-70
2022/08/10 04:57:17;;;;;;;11.48;6.60;;;16.30;99.90;;;;;;3060243;19;20026;-70
2022/08/10 04:58:18;;;;;;;12.63;6.85;;;16.20;99.90;;;;;;3060441;19;20345;-70
2022/08/10 04:59:22;;;;;;;10.23;6.93;;;16.20;99.90;;;;;;3059196;19;20019;-70
2022/08/10 05:00:23;;;;;;;12.57;6.78;;;16.20;99.90;;;;;;3059357;19;20044;-71
2022/08/10 05:01:27;;;;;;;11.48;7.20;;;16.10;99.90;;;;;;3059484;19;20036;-71
2022/08/10 05:02:29;;;;;;;10.13;7.10;;;16.10;99.90;;;;;;3059172;19;20014;-70
2022/08/10 05:03:32;;;;;;;10.40;7.00;;;16.20;99.90;;;;;;3059336;19;20362;-70
2022/08/10 05:04:34;;;;;;;13.18;7.43;;;16.30;99.90;;;;;;3059270;19;20003;-69
2022/08/10 05:05:38;;;;;;;9.73;6.95;;;16.20;99.90;;;;;;3059194;19;19999;-70
2022/08/10 05:06:39;;;;;;;10.85;6.97;;;16.30;99.90;;;;;;3060178;19;20003;-70
2022/08/10 05:07:45;;;;;;;10.70;6.97;;;16.20;99.90;;;;;;3059106;19;20021;-71
2022/08/10 05:08:46;;;;;;;12.95;7.18;;;16.20;99.90;;;;;;3058881;19;20010;-69
2022/08/10 05:09:53;;;;;;;14.45;7.22;;;16.30;99.90;;;;;;3058754;19;20015;-69
2022/08/10 05:10:56;;;;;;;11.15;7.30;;;16.10;99.90;;;;;;3059145;19;20681;-69
2022/08/10 05:11:58;;;;;;;9.05;6.50;;;16.30;99.90;;;;;;3058359;19;20354;-69
2022/08/10 05:13:01;;;;;;;9.20;6.30;;;16.10;99.90;;;;;;3059247;19;20013;-69
2022/08/10 05:14:05;;;;;;;10.38;6.78;;;16.30;99.90;;;;;;3060486;19;20039;-69
2022/08/10 05:15:11;;;;;;;12.73;6.72;;;16.30;99.90;;;;;;3059125;19;20014;-69
2022/08/10 05:16:12;;;;;;;10.60;6.63;;;16.10;99.90;;;;;;3059025;19;20030;-69
2022/08/10 05:17:16;;;;;;;10.88;7.13;;;16.30;99.90;;;;;;3058998;19;20027;-70
2022/08/10 05:18:18;;;;;;;9.45;6.32;;;16.30;99.90;;;;;;3059127;19;20010;-69
2022/08/10 05:19:22;;;;;;;10.05;6.88;;;16.20;99.90;;;;;;3059294;19;20010;-69
2022/08/10 05:20:23;;;;;;;9.07;5.85;;;16.30;99.90;;;;;;3058820;19;20003;-69
2022/08/10 05:21:27;;;;;;;10.70;6.53;;;16.30;99.90;;;;;;3059225;19;20003;-70
2022/08/10 05:22:28;;;;;;;8.77;6.22;;;16.30;99.90;;;;;;3058411;19;20018;-70
2022/08/10 05:23:35;;;;;;;12.55;6.70;;;16.50;99.90;;;;;;3059525;19;20010;-69
2022/08/10 05:24:36;;;;;;;9.85;5.57;;;16.20;99.90;;;;;;3058448;19;20010;-70
2022/08/10 05:25:40;;;;;;;9.45;6.43;;;16.50;99.90;;;;;;3058908;19;20020;-69
2022/08/10 05:26:41;;;;;;;12.60;6.20;;;16.20;99.90;;;;;;3058535;19;20023;-71
2022/08/10 05:27:47;;;;;;;12.13;6.90;;;16.20;99.90;;;;;;3059035;19;20006;-70
2022/08/10 05:28:48;;;;;;;8.95;6.18;;;16.40;99.90;;;;;;3058503;19;20362;-69
2022/08/10 05:29:52;;;;;;;9.32;5.82;;;16.20;99.90;;;;;;3059379;19;20387;-69
2022/08/10 05:30:54;;;;;;;11.05;6.05;;;16.50;99.90;;;;;;3058659;19;20029;-69
2022/08/10 05:31:59;;;;;;;8.70;6.35;;;16.40;99.90;;;;;;3055262;19;20096;-69
2022/08/10 05:33:00;;;;;;;10.07;6.28;;;16.30;99.90;;;;;;3057573;19;20025;-69
2022/08/10 05:34:04;;;;;;;8.45;6.10;;;16.40;99.90;;;;;;3057301;19;20014;-69
2022/08/10 05:35:06;;;;;;;11.43;6.57;;;16.40;99.90;;;;;;3058671;19;20019;-69
2022/08/10 05:36:11;;;;;;;9.13;5.95;;;16.60;99.90;;;;;;3058702;19;20078;-69
2022/08/10 05:37:14;;;;;;;10.02;6.05;;;16.40;99.90;;;;;;3056922;19;20198;-69
2022/08/10 05:38:19;;;;;;;9.23;6.25;;;16.40;99.90;;;;;;3058940;19;20496;-69